sensor_id;sensor_type;location;lat;lon;timestamp;P1;durP1;ratioP1;P2;durP2;ratioP2
37895;SDS011;23733;53.254;10.430;2023-02-16T00:01:26;21.23;;;12.60;;
37895;SDS011;23733;53.254;10.430;2023-02-16T00:03:53;22.97;;;13.57;;
37895;SDS011;23733;53.254;10.430;2023-02-16T00:06:19;23.47;;;13.70;;
37895;SDS011;23733;53.254;10.430;2023-02-16T00:08:46;23.63;;;13.50;;
37895;SDS011;23733;53.254;10.430;2023-02-16T00:11:15;21.67;;;13.17;;
37895;SDS011;23733;53.254;10.430;2023-02-16T00:14:00;22.43;;;12.83;;
37895;SDS011;23733;53.254;10.430;2023-02-16T00:16:27;20.33;;;12.43;;
37895;SDS011;23733;53.254;10.430;2023-02-16T00:18:53;24.20;;;13.53;;
37895;SDS011;23733;53.254;10.430;2023-02-16T00:21:20;21.90;;;13.20;;
37895;SDS011;23733;53.254;10.430;2023-02-16T00:23:46;24.07;;;13.43;;
37895;SDS011;23733;53.254;10.430;2023-02-16T00:26:22;25.40;;;14.47;;
37895;SDS011;23733;53.254;10.430;2023-02-16T00:28:52;23.83;;;13.80;;
37895;SDS011;23733;53.254;10.430;2023-02-16T00:31:19;25.03;;;14.47;;
37895;SDS011;23733;53.254;10.430;2023-02-16T00:33:47;26.93;;;15.27;;
37895;SDS011;23733;53.254;10.430;2023-02-16T00:36:13;24.63;;;14.60;;
37895;SDS011;23733;53.254;10.430;2023-02-16T00:38:39;22.07;;;13.13;;
37895;SDS011;23733;53.254;10.430;2023-02-16T00:41:09;23.73;;;14.63;;
37895;SDS011;23733;53.254;10.430;2023-02-16T00:43:59;25.00;;;14.70;;
37895;SDS011;23733;53.254;10.430;2023-02-16T00:46:25;25.10;;;14.60;;
37895;SDS011;23733;53.254;10.430;2023-02-16T00:48:52;23.30;;;13.27;;
37895;SDS011;23733;53.254;10.430;2023-02-16T00:51:18;24.97;;;14.97;;
37895;SDS011;23733;53.254;10.430;2023-02-16T00:53:44;25.43;;;15.47;;
37895;SDS011;23733;53.254;10.430;2023-02-16T00:56:11;26.07;;;14.13;;
37895;SDS011;23733;53.254;10.430;2023-02-16T00:58:40;26.97;;;15.00;;
37895;SDS011;23733;53.254;10.430;2023-02-16T01:01:13;26.20;;;14.47;;
37895;SDS011;23733;53.254;10.430;2023-02-16T01:03:40;27.70;;;14.77;;
37895;SDS011;23733;53.254;10.430;2023-02-16T01:06:07;25.03;;;15.10;;
37895;SDS011;23733;53.254;10.430;2023-02-16T01:08:54;28.60;;;16.00;;
37895;SDS011;23733;53.254;10.430;2023-02-16T01:11:50;23.63;;;13.90;;
37895;SDS011;23733;53.254;10.430;2023-02-16T01:14:16;26.60;;;15.87;;
37895;SDS011;23733;53.254;10.430;2023-02-16T01:16:43;26.13;;;14.67;;
37895;SDS011;23733;53.254;10.430;2023-02-16T01:19:10;29.97;;;16.97;;
37895;SDS011;23733;53.254;10.430;2023-02-16T01:21:36;36.03;;;17.27;;
37895;SDS011;23733;53.254;10.430;2023-02-16T01:24:02;26.30;;;15.37;;
37895;SDS011;23733;53.254;10.430;2023-02-16T01:26:29;27.87;;;15.73;;
37895;SDS011;23733;53.254;10.430;2023-02-16T01:28:57;29.63;;;16.47;;
37895;SDS011;23733;53.254;10.430;2023-02-16T01:31:23;28.00;;;15.23;;
37895;SDS011;23733;53.254;10.430;2023-02-16T01:33:50;27.27;;;16.33;;
37895;SDS011;23733;53.254;10.430;2023-02-16T01:36:27;27.67;;;15.30;;
37895;SDS011;23733;53.254;10.430;2023-02-16T01:38:54;26.83;;;15.47;;
37895;SDS011;23733;53.254;10.430;2023-02-16T01:43:52;24.50;;;15.00;;
37895;SDS011;23733;53.254;10.430;2023-02-16T01:46:22;30.60;;;16.87;;
37895;SDS011;23733;53.254;10.430;2023-02-16T01:48:50;29.77;;;16.67;;
37895;SDS011;23733;53.254;10.430;2023-02-16T01:51:23;24.00;;;14.50;;
37895;SDS011;23733;53.254;10.430;2023-02-16T01:53:52;25.07;;;15.03;;
37895;SDS011;23733;53.254;10.430;2023-02-16T01:56:39;24.70;;;14.30;;
37895;SDS011;23733;53.254;10.430;2023-02-16T01:59:13;28.93;;;14.27;;
37895;SDS011;23733;53.254;10.430;2023-02-16T02:01:47;24.57;;;15.20;;
37895;SDS011;23733;53.254;10.430;2023-02-16T02:04:22;26.20;;;15.07;;
37895;SDS011;23733;53.254;10.430;2023-02-16T02:07:10;25.13;;;14.50;;
37895;SDS011;23733;53.254;10.430;2023-02-16T02:10:24;27.13;;;14.67;;
37895;SDS011;23733;53.254;10.430;2023-02-16T02:12:39;25.47;;;15.03;;
37895;SDS011;23733;53.254;10.430;2023-02-16T02:15:08;25.57;;;14.97;;
37895;SDS011;23733;53.254;10.430;2023-02-16T02:17:35;27.97;;;14.80;;
37895;SDS011;23733;53.254;10.430;2023-02-16T02:20:04;24.93;;;14.17;;
37895;SDS011;23733;53.254;10.430;2023-02-16T02:28:16;25.53;;;15.47;;
37895;SDS011;23733;53.254;10.430;2023-02-16T02:33:54;29.00;;;15.33;;
37895;SDS011;23733;53.254;10.430;2023-02-16T02:36:27;25.93;;;14.47;;
37895;SDS011;23733;53.254;10.430;2023-02-16T02:39:17;27.13;;;15.60;;
37895;SDS011;23733;53.254;10.430;2023-02-16T02:41:51;26.60;;;15.27;;
37895;SDS011;23733;53.254;10.430;2023-02-16T02:44:34;26.53;;;14.63;;
37895;SDS011;23733;53.254;10.430;2023-02-16T02:47:03;25.97;;;15.17;;
37895;SDS011;23733;53.254;10.430;2023-02-16T02:49:29;25.70;;;15.43;;
37895;SDS011;23733;53.254;10.430;2023-02-16T02:51:55;29.83;;;14.50;;
37895;SDS011;23733;53.254;10.430;2023-02-16T02:54:23;23.30;;;13.90;;
37895;SDS011;23733;53.254;10.430;2023-02-16T02:57:13;26.17;;;15.53;;
37895;SDS011;23733;53.254;10.430;2023-02-16T03:03:05;27.23;;;15.33;;
37895;SDS011;23733;53.254;10.430;2023-02-16T03:05:32;29.03;;;15.60;;
37895;SDS011;23733;53.254;10.430;2023-02-16T03:08:04;26.13;;;15.80;;
37895;SDS011;23733;53.254;10.430;2023-02-16T03:10:40;27.07;;;15.30;;
37895;SDS011;23733;53.254;10.430;2023-02-16T03:13:34;24.67;;;14.67;;
37895;SDS011;23733;53.254;10.430;2023-02-16T03:16:03;26.47;;;15.47;;
37895;SDS011;23733;53.254;10.430;2023-02-16T03:18:30;25.23;;;14.87;;
37895;SDS011;23733;53.254;10.430;2023-02-16T03:21:16;27.20;;;14.90;;
37895;SDS011;23733;53.254;10.430;2023-02-16T03:24:02;30.47;;;17.03;;
37895;SDS011;23733;53.254;10.430;2023-02-16T03:26:49;26.67;;;16.17;;
37895;SDS011;23733;53.254;10.430;2023-02-16T03:29:35;28.00;;;16.33;;
37895;SDS011;23733;53.254;10.430;2023-02-16T03:32:02;30.27;;;16.10;;
37895;SDS011;23733;53.254;10.430;2023-02-16T03:34:28;26.73;;;15.40;;
37895;SDS011;23733;53.254;10.430;2023-02-16T03:36:56;27.73;;;15.30;;
37895;SDS011;23733;53.254;10.430;2023-02-16T03:39:25;33.87;;;16.10;;
37895;SDS011;23733;53.254;10.430;2023-02-16T03:41:52;24.83;;;14.67;;
37895;SDS011;23733;53.254;10.430;2023-02-16T03:44:19;29.57;;;15.37;;
37895;SDS011;23733;53.254;10.430;2023-02-16T03:46:45;28.30;;;15.50;;
37895;SDS011;23733;53.254;10.430;2023-02-16T03:49:14;29.10;;;15.97;;
37895;SDS011;23733;53.254;10.430;2023-02-16T03:51:40;26.43;;;16.00;;
37895;SDS011;23733;53.254;10.430;2023-02-16T03:54:06;27.13;;;15.67;;
37895;SDS011;23733;53.254;10.430;2023-02-16T03:56:33;29.87;;;15.53;;
37895;SDS011;23733;53.254;10.430;2023-02-16T03:58:59;28.40;;;16.40;;
37895;SDS011;23733;53.254;10.430;2023-02-16T04:01:25;29.13;;;16.80;;
37895;SDS011;23733;53.254;10.430;2023-02-16T04:03:52;29.90;;;16.53;;
37895;SDS011;23733;53.254;10.430;2023-02-16T04:06:18;27.60;;;15.83;;
37895;SDS011;23733;53.254;10.430;2023-02-16T04:08:44;30.37;;;16.80;;
37895;SDS011;23733;53.254;10.430;2023-02-16T04:11:11;36.07;;;17.47;;
37895;SDS011;23733;53.254;10.430;2023-02-16T04:13:56;30.03;;;16.43;;
37895;SDS011;23733;53.254;10.430;2023-02-16T04:16:22;27.83;;;16.40;;
37895;SDS011;23733;53.254;10.430;2023-02-16T04:18:48;35.47;;;17.13;;
37895;SDS011;23733;53.254;10.430;2023-02-16T04:21:15;32.70;;;18.13;;
37895;SDS011;23733;53.254;10.430;2023-02-16T04:23:41;29.47;;;16.70;;
37895;SDS011;23733;53.254;10.430;2023-02-16T04:26:07;29.87;;;17.20;;
37895;SDS011;23733;53.254;10.430;2023-02-16T04:28:34;29.47;;;16.57;;
37895;SDS011;23733;53.254;10.430;2023-02-16T04:31:00;32.07;;;17.13;;
37895;SDS011;23733;53.254;10.430;2023-02-16T04:33:26;34.43;;;18.43;;
37895;SDS011;23733;53.254;10.430;2023-02-16T04:35:53;34.30;;;18.40;;
37895;SDS011;23733;53.254;10.430;2023-02-16T04:38:19;30.70;;;17.60;;
37895;SDS011;23733;53.254;10.430;2023-02-16T04:40:45;32.50;;;17.70;;
37895;SDS011;23733;53.254;10.430;2023-02-16T04:43:11;34.33;;;18.37;;
37895;SDS011;23733;53.254;10.430;2023-02-16T04:45:38;30.17;;;17.30;;
37895;SDS011;23733;53.254;10.430;2023-02-16T04:48:04;34.43;;;17.70;;
37895;SDS011;23733;53.254;10.430;2023-02-16T04:50:30;32.17;;;17.73;;
37895;SDS011;23733;53.254;10.430;2023-02-16T04:52:57;33.83;;;18.87;;
37895;SDS011;23733;53.254;10.430;2023-02-16T04:55:23;31.97;;;17.77;;
37895;SDS011;23733;53.254;10.430;2023-02-16T04:57:49;31.30;;;18.63;;
37895;SDS011;23733;53.254;10.430;2023-02-16T05:00:16;27.43;;;16.47;;
37895;SDS011;23733;53.254;10.430;2023-02-16T05:02:42;38.03;;;19.47;;
37895;SDS011;23733;53.254;10.430;2023-02-16T05:05:09;35.23;;;18.27;;
37895;SDS011;23733;53.254;10.430;2023-02-16T05:07:35;29.80;;;18.63;;
37895;SDS011;23733;53.254;10.430;2023-02-16T05:10:01;31.87;;;17.90;;
37895;SDS011;23733;53.254;10.430;2023-02-16T05:12:28;32.20;;;18.27;;
37895;SDS011;23733;53.254;10.430;2023-02-16T05:15:13;26.33;;;17.00;;
37895;SDS011;23733;53.254;10.430;2023-02-16T05:17:39;29.87;;;17.93;;
37895;SDS011;23733;53.254;10.430;2023-02-16T05:20:05;31.80;;;17.27;;
37895;SDS011;23733;53.254;10.430;2023-02-16T05:22:32;31.90;;;17.67;;
37895;SDS011;23733;53.254;10.430;2023-02-16T05:24:59;33.30;;;17.57;;
37895;SDS011;23733;53.254;10.430;2023-02-16T05:27:26;28.13;;;16.63;;
37895;SDS011;23733;53.254;10.430;2023-02-16T05:29:52;30.30;;;17.90;;
37895;SDS011;23733;53.254;10.430;2023-02-16T05:32:19;31.53;;;19.03;;
37895;SDS011;23733;53.254;10.430;2023-02-16T05:34:46;31.97;;;18.10;;
37895;SDS011;23733;53.254;10.430;2023-02-16T05:37:13;32.10;;;18.37;;
37895;SDS011;23733;53.254;10.430;2023-02-16T05:39:39;35.73;;;19.97;;
37895;SDS011;23733;53.254;10.430;2023-02-16T05:42:06;31.80;;;16.87;;
37895;SDS011;23733;53.254;10.430;2023-02-16T05:44:32;32.17;;;18.40;;
37895;SDS011;23733;53.254;10.430;2023-02-16T05:46:58;32.87;;;18.87;;
37895;SDS011;23733;53.254;10.430;2023-02-16T05:49:25;36.77;;;19.57;;
37895;SDS011;23733;53.254;10.430;2023-02-16T05:51:51;35.07;;;20.07;;
37895;SDS011;23733;53.254;10.430;2023-02-16T05:54:17;35.00;;;19.93;;
37895;SDS011;23733;53.254;10.430;2023-02-16T05:56:48;31.47;;;18.53;;
37895;SDS011;23733;53.254;10.430;2023-02-16T05:59:15;32.83;;;19.37;;
37895;SDS011;23733;53.254;10.430;2023-02-16T06:01:42;34.90;;;19.17;;
37895;SDS011;23733;53.254;10.430;2023-02-16T06:04:09;37.33;;;20.40;;
37895;SDS011;23733;53.254;10.430;2023-02-16T06:06:36;39.10;;;20.67;;
37895;SDS011;23733;53.254;10.430;2023-02-16T06:09:06;34.43;;;19.90;;
37895;SDS011;23733;53.254;10.430;2023-02-16T06:11:33;34.57;;;19.30;;
37895;SDS011;23733;53.254;10.430;2023-02-16T06:14:03;32.07;;;20.47;;
37895;SDS011;23733;53.254;10.430;2023-02-16T06:16:30;35.70;;;19.43;;
37895;SDS011;23733;53.254;10.430;2023-02-16T06:18:57;36.27;;;20.67;;
37895;SDS011;23733;53.254;10.430;2023-02-16T06:21:24;38.13;;;21.00;;
37895;SDS011;23733;53.254;10.430;2023-02-16T06:23:50;36.37;;;22.03;;
37895;SDS011;23733;53.254;10.430;2023-02-16T06:26:17;40.20;;;22.03;;
37895;SDS011;23733;53.254;10.430;2023-02-16T06:28:43;36.60;;;21.20;;
37895;SDS011;23733;53.254;10.430;2023-02-16T06:31:10;39.60;;;22.23;;
37895;SDS011;23733;53.254;10.430;2023-02-16T06:33:36;37.63;;;21.77;;
37895;SDS011;23733;53.254;10.430;2023-02-16T06:36:03;39.03;;;22.10;;
37895;SDS011;23733;53.254;10.430;2023-02-16T06:38:29;38.23;;;22.30;;
37895;SDS011;23733;53.254;10.430;2023-02-16T06:40:55;42.50;;;22.40;;
37895;SDS011;23733;53.254;10.430;2023-02-16T06:43:22;35.87;;;22.20;;
37895;SDS011;23733;53.254;10.430;2023-02-16T06:45:48;39.07;;;21.30;;
37895;SDS011;23733;53.254;10.430;2023-02-16T06:48:14;37.23;;;20.63;;
37895;SDS011;23733;53.254;10.430;2023-02-16T06:50:41;35.97;;;20.97;;
37895;SDS011;23733;53.254;10.430;2023-02-16T06:53:07;41.77;;;22.53;;
37895;SDS011;23733;53.254;10.430;2023-02-16T06:55:34;36.23;;;20.73;;
37895;SDS011;23733;53.254;10.430;2023-02-16T06:58:01;41.50;;;22.33;;
37895;SDS011;23733;53.254;10.430;2023-02-16T07:00:28;39.40;;;22.13;;
37895;SDS011;23733;53.254;10.430;2023-02-16T07:02:54;41.47;;;22.50;;
37895;SDS011;23733;53.254;10.430;2023-02-16T07:05:21;38.00;;;21.17;;
37895;SDS011;23733;53.254;10.430;2023-02-16T07:07:47;43.03;;;24.93;;
37895;SDS011;23733;53.254;10.430;2023-02-16T07:10:13;40.57;;;23.80;;
37895;SDS011;23733;53.254;10.430;2023-02-16T07:12:40;38.77;;;23.10;;
37895;SDS011;23733;53.254;10.430;2023-02-16T07:15:06;39.93;;;21.63;;
37895;SDS011;23733;53.254;10.430;2023-02-16T07:17:33;39.57;;;22.50;;
37895;SDS011;23733;53.254;10.430;2023-02-16T07:19:59;44.40;;;24.03;;
37895;SDS011;23733;53.254;10.430;2023-02-16T07:22:25;42.27;;;23.70;;
37895;SDS011;23733;53.254;10.430;2023-02-16T07:24:54;43.90;;;23.93;;
37895;SDS011;23733;53.254;10.430;2023-02-16T07:27:22;41.73;;;23.53;;
37895;SDS011;23733;53.254;10.430;2023-02-16T07:29:48;42.00;;;22.93;;
37895;SDS011;23733;53.254;10.430;2023-02-16T07:32:14;37.40;;;22.03;;
37895;SDS011;23733;53.254;10.430;2023-02-16T07:34:41;40.87;;;23.63;;
37895;SDS011;23733;53.254;10.430;2023-02-16T07:37:07;38.87;;;23.40;;
37895;SDS011;23733;53.254;10.430;2023-02-16T07:39:33;46.53;;;25.23;;
37895;SDS011;23733;53.254;10.430;2023-02-16T07:42:00;42.17;;;25.10;;
37895;SDS011;23733;53.254;10.430;2023-02-16T07:44:26;50.60;;;26.10;;
37895;SDS011;23733;53.254;10.430;2023-02-16T07:46:52;46.93;;;25.17;;
37895;SDS011;23733;53.254;10.430;2023-02-16T07:49:19;47.20;;;27.53;;
37895;SDS011;23733;53.254;10.430;2023-02-16T07:51:45;45.57;;;24.27;;
37895;SDS011;23733;53.254;10.430;2023-02-16T07:54:11;45.60;;;25.47;;
37895;SDS011;23733;53.254;10.430;2023-02-16T07:56:37;46.33;;;25.27;;
37895;SDS011;23733;53.254;10.430;2023-02-16T07:59:04;44.43;;;24.57;;
37895;SDS011;23733;53.254;10.430;2023-02-16T08:01:30;46.53;;;26.53;;
37895;SDS011;23733;53.254;10.430;2023-02-16T08:03:57;44.73;;;25.23;;
37895;SDS011;23733;53.254;10.430;2023-02-16T08:06:23;44.90;;;26.30;;
37895;SDS011;23733;53.254;10.430;2023-02-16T08:08:49;47.73;;;26.70;;
37895;SDS011;23733;53.254;10.430;2023-02-16T08:11:17;45.37;;;26.00;;
37895;SDS011;23733;53.254;10.430;2023-02-16T08:13:43;48.23;;;26.40;;
37895;SDS011;23733;53.254;10.430;2023-02-16T08:16:13;45.73;;;27.00;;
37895;SDS011;23733;53.254;10.430;2023-02-16T08:18:39;44.47;;;25.83;;
37895;SDS011;23733;53.254;10.430;2023-02-16T08:21:10;46.87;;;27.13;;
37895;SDS011;23733;53.254;10.430;2023-02-16T08:23:41;44.70;;;25.50;;
37895;SDS011;23733;53.254;10.430;2023-02-16T08:26:10;46.27;;;27.63;;
37895;SDS011;23733;53.254;10.430;2023-02-16T08:28:36;47.40;;;26.63;;
37895;SDS011;23733;53.254;10.430;2023-02-16T08:31:03;55.63;;;27.43;;
37895;SDS011;23733;53.254;10.430;2023-02-16T08:33:30;43.53;;;24.23;;
37895;SDS011;23733;53.254;10.430;2023-02-16T08:35:57;43.07;;;25.67;;
37895;SDS011;23733;53.254;10.430;2023-02-16T08:38:24;45.87;;;26.27;;
37895;SDS011;23733;53.254;10.430;2023-02-16T08:40:50;45.67;;;27.23;;
37895;SDS011;23733;53.254;10.430;2023-02-16T08:43:16;46.37;;;25.83;;
37895;SDS011;23733;53.254;10.430;2023-02-16T08:45:46;49.93;;;27.30;;
37895;SDS011;23733;53.254;10.430;2023-02-16T08:48:12;47.50;;;26.33;;
37895;SDS011;23733;53.254;10.430;2023-02-16T08:50:43;43.17;;;24.93;;
37895;SDS011;23733;53.254;10.430;2023-02-16T08:53:14;45.77;;;26.20;;
37895;SDS011;23733;53.254;10.430;2023-02-16T08:55:40;43.77;;;23.60;;
37895;SDS011;23733;53.254;10.430;2023-02-16T08:58:07;37.90;;;22.20;;
37895;SDS011;23733;53.254;10.430;2023-02-16T09:00:33;43.57;;;24.70;;
37895;SDS011;23733;53.254;10.430;2023-02-16T09:02:59;40.90;;;24.93;;
37895;SDS011;23733;53.254;10.430;2023-02-16T09:05:26;48.07;;;25.17;;
37895;SDS011;23733;53.254;10.430;2023-02-16T09:07:52;44.57;;;25.10;;
37895;SDS011;23733;53.254;10.430;2023-02-16T09:10:19;38.67;;;23.33;;
37895;SDS011;23733;53.254;10.430;2023-02-16T09:12:49;38.97;;;23.33;;
37895;SDS011;23733;53.254;10.430;2023-02-16T09:15:15;41.73;;;24.47;;
37895;SDS011;23733;53.254;10.430;2023-02-16T09:17:42;40.77;;;24.63;;
37895;SDS011;23733;53.254;10.430;2023-02-16T09:20:08;40.43;;;25.30;;
37895;SDS011;23733;53.254;10.430;2023-02-16T09:22:35;37.03;;;22.53;;
37895;SDS011;23733;53.254;10.430;2023-02-16T09:25:02;39.07;;;23.27;;
37895;SDS011;23733;53.254;10.430;2023-02-16T09:27:28;42.13;;;23.50;;
37895;SDS011;23733;53.254;10.430;2023-02-16T09:29:55;39.67;;;22.77;;
37895;SDS011;23733;53.254;10.430;2023-02-16T09:32:26;36.80;;;22.47;;
37895;SDS011;23733;53.254;10.430;2023-02-16T09:34:52;39.03;;;23.93;;
37895;SDS011;23733;53.254;10.430;2023-02-16T09:37:19;38.73;;;23.27;;
37895;SDS011;23733;53.254;10.430;2023-02-16T09:39:45;34.90;;;22.27;;
37895;SDS011;23733;53.254;10.430;2023-02-16T09:42:29;37.23;;;23.07;;
37895;SDS011;23733;53.254;10.430;2023-02-16T09:47:30;43.07;;;22.20;;
37895;SDS011;23733;53.254;10.430;2023-02-16T09:50:05;41.40;;;23.90;;
37895;SDS011;23733;53.254;10.430;2023-02-16T09:52:37;41.53;;;22.33;;
37895;SDS011;23733;53.254;10.430;2023-02-16T09:55:10;38.47;;;22.40;;
37895;SDS011;23733;53.254;10.430;2023-02-16T09:57:43;36.33;;;21.43;;
37895;SDS011;23733;53.254;10.430;2023-02-16T10:08:31;37.47;;;22.33;;
37895;SDS011;23733;53.254;10.430;2023-02-16T10:11:15;39.30;;;22.33;;
37895;SDS011;23733;53.254;10.430;2023-02-16T10:16:55;36.53;;;20.60;;
37895;SDS011;23733;53.254;10.430;2023-02-16T10:19:25;32.13;;;19.80;;
37895;SDS011;23733;53.254;10.430;2023-02-16T10:21:55;37.93;;;22.03;;
37895;SDS011;23733;53.254;10.430;2023-02-16T10:24:22;32.30;;;20.10;;
37895;SDS011;23733;53.254;10.430;2023-02-16T10:26:53;32.67;;;20.67;;
37895;SDS011;23733;53.254;10.430;2023-02-16T10:29:26;36.97;;;22.33;;
37895;SDS011;23733;53.254;10.430;2023-02-16T10:31:57;38.17;;;21.90;;
37895;SDS011;23733;53.254;10.430;2023-02-16T10:39:50;35.63;;;20.80;;
37895;SDS011;23733;53.254;10.430;2023-02-16T10:42:30;34.63;;;22.30;;
37895;SDS011;23733;53.254;10.430;2023-02-16T10:45:04;35.70;;;21.27;;
37895;SDS011;23733;53.254;10.430;2023-02-16T10:47:39;38.07;;;22.50;;
37895;SDS011;23733;53.254;10.430;2023-02-16T10:50:06;35.93;;;20.83;;
37895;SDS011;23733;53.254;10.430;2023-02-16T10:52:37;34.43;;;20.77;;
37895;SDS011;23733;53.254;10.430;2023-02-16T10:55:05;33.70;;;21.43;;
37895;SDS011;23733;53.254;10.430;2023-02-16T10:57:32;33.93;;;20.63;;
37895;SDS011;23733;53.254;10.430;2023-02-16T11:00:00;35.17;;;20.73;;
37895;SDS011;23733;53.254;10.430;2023-02-16T11:02:37;36.17;;;20.30;;
37895;SDS011;23733;53.254;10.430;2023-02-16T11:07:54;33.23;;;21.30;;
37895;SDS011;23733;53.254;10.430;2023-02-16T11:10:29;38.20;;;21.60;;
37895;SDS011;23733;53.254;10.430;2023-02-16T11:12:59;33.53;;;20.77;;
37895;SDS011;23733;53.254;10.430;2023-02-16T11:15:25;38.17;;;21.40;;
37895;SDS011;23733;53.254;10.430;2023-02-16T11:18:09;35.47;;;21.20;;
37895;SDS011;23733;53.254;10.430;2023-02-16T11:20:53;34.53;;;21.13;;
37895;SDS011;23733;53.254;10.430;2023-02-16T11:23:23;39.80;;;21.30;;
37895;SDS011;23733;53.254;10.430;2023-02-16T11:25:54;32.73;;;20.57;;
37895;SDS011;23733;53.254;10.430;2023-02-16T11:28:41;37.33;;;20.60;;
37895;SDS011;23733;53.254;10.430;2023-02-16T11:31:18;35.50;;;20.77;;
37895;SDS011;23733;53.254;10.430;2023-02-16T11:36:29;33.83;;;21.20;;
37895;SDS011;23733;53.254;10.430;2023-02-16T11:39:01;33.57;;;19.83;;
37895;SDS011;23733;53.254;10.430;2023-02-16T11:41:28;33.53;;;21.03;;
37895;SDS011;23733;53.254;10.430;2023-02-16T11:43:55;35.37;;;20.80;;
37895;SDS011;23733;53.254;10.430;2023-02-16T11:46:22;29.50;;;18.27;;
37895;SDS011;23733;53.254;10.430;2023-02-16T11:48:49;29.57;;;18.40;;
37895;SDS011;23733;53.254;10.430;2023-02-16T11:51:27;33.83;;;19.60;;
37895;SDS011;23733;53.254;10.430;2023-02-16T11:53:58;36.83;;;20.33;;
37895;SDS011;23733;53.254;10.430;2023-02-16T11:56:26;28.80;;;18.77;;
37895;SDS011;23733;53.254;10.430;2023-02-16T11:59:03;33.63;;;20.47;;
37895;SDS011;23733;53.254;10.430;2023-02-16T12:01:40;33.83;;;19.50;;
37895;SDS011;23733;53.254;10.430;2023-02-16T12:06:47;31.57;;;20.20;;
37895;SDS011;23733;53.254;10.430;2023-02-16T12:09:37;32.97;;;19.27;;
37895;SDS011;23733;53.254;10.430;2023-02-16T12:14:42;33.07;;;18.87;;
37895;SDS011;23733;53.254;10.430;2023-02-16T12:17:18;36.93;;;20.43;;
37895;SDS011;23733;53.254;10.430;2023-02-16T12:19:48;36.07;;;19.83;;
37895;SDS011;23733;53.254;10.430;2023-02-16T12:24:48;32.13;;;18.30;;
37895;SDS011;23733;53.254;10.430;2023-02-16T12:27:24;29.50;;;18.97;;
37895;SDS011;23733;53.254;10.430;2023-02-16T12:37:33;34.37;;;19.77;;
37895;SDS011;23733;53.254;10.430;2023-02-16T12:42:49;33.80;;;20.53;;
37895;SDS011;23733;53.254;10.430;2023-02-16T12:45:20;32.40;;;20.20;;
37895;SDS011;23733;53.254;10.430;2023-02-16T12:47:52;35.00;;;21.03;;
37895;SDS011;23733;53.254;10.430;2023-02-16T12:50:24;37.57;;;20.07;;
37895;SDS011;23733;53.254;10.430;2023-02-16T12:53:02;35.60;;;20.60;;
37895;SDS011;23733;53.254;10.430;2023-02-16T12:55:32;36.70;;;20.23;;
37895;SDS011;23733;53.254;10.430;2023-02-16T13:03:19;36.57;;;21.13;;
37895;SDS011;23733;53.254;10.430;2023-02-16T13:05:56;36.00;;;20.97;;
37895;SDS011;23733;53.254;10.430;2023-02-16T13:08:39;31.30;;;20.23;;
37895;SDS011;23733;53.254;10.430;2023-02-16T13:11:13;35.30;;;21.30;;
37895;SDS011;23733;53.254;10.430;2023-02-16T13:13:41;37.87;;;21.07;;
37895;SDS011;23733;53.254;10.430;2023-02-16T13:16:18;35.67;;;20.87;;
37895;SDS011;23733;53.254;10.430;2023-02-16T13:18:45;35.80;;;21.43;;
37895;SDS011;23733;53.254;10.430;2023-02-16T13:21:15;33.07;;;20.43;;
37895;SDS011;23733;53.254;10.430;2023-02-16T13:33:50;35.57;;;21.70;;
37895;SDS011;23733;53.254;10.430;2023-02-16T13:36:24;35.13;;;20.77;;
37895;SDS011;23733;53.254;10.430;2023-02-16T13:41:44;31.10;;;19.77;;
37895;SDS011;23733;53.254;10.430;2023-02-16T13:44:19;36.10;;;22.03;;
37895;SDS011;23733;53.254;10.430;2023-02-16T13:46:47;33.67;;;20.43;;
37895;SDS011;23733;53.254;10.430;2023-02-16T13:54:57;34.90;;;21.47;;
37895;SDS011;23733;53.254;10.430;2023-02-16T14:02:56;30.40;;;20.07;;
37895;SDS011;23733;53.254;10.430;2023-02-16T14:05:33;35.00;;;21.63;;
37895;SDS011;23733;53.254;10.430;2023-02-16T14:13:43;36.53;;;22.43;;
37895;SDS011;23733;53.254;10.430;2023-02-16T14:16:11;34.70;;;22.53;;
37895;SDS011;23733;53.254;10.430;2023-02-16T14:18:40;38.60;;;23.87;;
37895;SDS011;23733;53.254;10.430;2023-02-16T14:21:17;38.07;;;21.87;;
37895;SDS011;23733;53.254;10.430;2023-02-16T14:23:52;36.00;;;22.70;;
37895;SDS011;23733;53.254;10.430;2023-02-16T14:26:19;37.40;;;21.83;;
37895;SDS011;23733;53.254;10.430;2023-02-16T14:28:51;39.33;;;23.23;;
37895;SDS011;23733;53.254;10.430;2023-02-16T14:31:20;36.83;;;23.07;;
37895;SDS011;23733;53.254;10.430;2023-02-16T14:34:02;39.53;;;22.37;;
37895;SDS011;23733;53.254;10.430;2023-02-16T14:36:28;35.63;;;21.23;;
37895;SDS011;23733;53.254;10.430;2023-02-16T14:38:56;37.60;;;21.70;;
37895;SDS011;23733;53.254;10.430;2023-02-16T14:41:33;41.57;;;23.07;;
37895;SDS011;23733;53.254;10.430;2023-02-16T14:54:35;40.40;;;22.17;;
37895;SDS011;23733;53.254;10.430;2023-02-16T14:57:15;34.77;;;21.97;;
37895;SDS011;23733;53.254;10.430;2023-02-16T15:04:55;36.57;;;20.50;;
37895;SDS011;23733;53.254;10.430;2023-02-16T15:07:22;34.40;;;20.83;;
37895;SDS011;23733;53.254;10.430;2023-02-16T15:09:51;33.50;;;20.60;;
37895;SDS011;23733;53.254;10.430;2023-02-16T15:12:22;33.20;;;21.53;;
37895;SDS011;23733;53.254;10.430;2023-02-16T15:14:56;33.03;;;20.67;;
37895;SDS011;23733;53.254;10.430;2023-02-16T15:17:32;35.00;;;22.17;;
37895;SDS011;23733;53.254;10.430;2023-02-16T15:20:06;35.60;;;21.87;;
37895;SDS011;23733;53.254;10.430;2023-02-16T15:22:35;36.33;;;21.60;;
37895;SDS011;23733;53.254;10.430;2023-02-16T15:25:42;34.40;;;20.57;;
37895;SDS011;23733;53.254;10.430;2023-02-16T15:30:35;44.10;;;21.40;;
37895;SDS011;23733;53.254;10.430;2023-02-16T15:33:04;36.03;;;22.23;;
37895;SDS011;23733;53.254;10.430;2023-02-16T15:38:01;38.43;;;20.97;;
37895;SDS011;23733;53.254;10.430;2023-02-16T15:40:28;39.70;;;21.10;;
37895;SDS011;23733;53.254;10.430;2023-02-16T15:42:58;33.80;;;21.57;;
37895;SDS011;23733;53.254;10.430;2023-02-16T15:45:28;33.97;;;20.07;;
37895;SDS011;23733;53.254;10.430;2023-02-16T15:48:11;33.53;;;20.13;;
37895;SDS011;23733;53.254;10.430;2023-02-16T15:50:37;36.50;;;21.13;;
37895;SDS011;23733;53.254;10.430;2023-02-16T15:53:03;32.43;;;20.30;;
37895;SDS011;23733;53.254;10.430;2023-02-16T15:55:31;35.43;;;22.80;;
37895;SDS011;23733;53.254;10.430;2023-02-16T15:57:58;38.00;;;22.73;;
37895;SDS011;23733;53.254;10.430;2023-02-16T16:00:24;41.43;;;22.40;;
37895;SDS011;23733;53.254;10.430;2023-02-16T16:02:53;32.73;;;22.63;;
37895;SDS011;23733;53.254;10.430;2023-02-16T16:05:23;32.93;;;21.77;;
37895;SDS011;23733;53.254;10.430;2023-02-16T16:07:50;33.07;;;21.17;;
37895;SDS011;23733;53.254;10.430;2023-02-16T16:10:19;34.70;;;21.40;;
37895;SDS011;23733;53.254;10.430;2023-02-16T16:12:46;37.80;;;23.13;;
37895;SDS011;23733;53.254;10.430;2023-02-16T16:15:18;35.43;;;21.43;;
37895;SDS011;23733;53.254;10.430;2023-02-16T16:17:47;37.53;;;22.30;;